Time;durP1;ratioP1;P1;durP2;ratioP2;P2;SDS_P1;SDS_P2;PMS_P1;PMS_P2;Temp;Humidity;BMP_temperature;BMP_pressure;BME280_temperature;BME280_humidity;BME280_pressure;Samples;Min_cycle;Max_cycle;Signal;HPM_P1;HPM_P2
2022/04/23 00:00:21;;;;;;;5.45;2.53;;;;;;;;;;5103896;28;20543;-72
2022/04/23 00:02:47;;;;;;;5.75;2.60;;;;;;;;;;5101644;28;20073;-73
2022/04/23 00:05:13;;;;;;;7.47;2.70;;;;;;;;;;5102029;28;20043;-73
2022/04/23 00:07:39;;;;;;;8.00;2.97;;;;;;;;;;5101832;28;20703;-72
2022/04/23 00:10:05;;;;;;;6.60;2.45;;;;;;;;;;5101654;28;20099;-73
2022/04/23 00:12:31;;;;;;;6.18;2.88;;;;;;;;;;5102265;28;20043;-72
2022/04/23 00:14:57;;;;;;;6.80;2.90;;;;;;;;;;5101880;28;20047;-72
2022/04/23 00:17:23;;;;;;;6.88;3.08;;;;;;;;;;5093995;28;20056;-73
2022/04/23 00:19:49;;;;;;;6.55;2.50;;;;;;;;;;5050001;28;20056;-73
2022/04/23 00:22:16;;;;;;;7.28;3.03;;;;;;;;;;5074366;28;20064;-73
2022/04/23 00:24:43;;;;;;;6.43;2.90;;;;;;;;;;5081645;28;20036;-73
2022/04/23 00:27:09;;;;;;;7.13;2.92;;;;;;;;;;5081056;28;20070;-72
2022/04/23 00:29:35;;;;;;;6.22;2.60;;;;;;;;;;5083676;28;20044;-73
2022/04/23 00:32:02;;;;;;;5.95;2.47;;;;;;;;;;5067843;28;20047;-73
2022/04/23 00:34:28;;;;;;;7.63;2.58;;;;;;;;;;5084197;28;20207;-72
2022/04/23 00:36:54;;;;;;;7.05;2.65;;;;;;;;;;5084772;28;20036;-73
2022/04/23 00:39:20;;;;;;;6.28;2.95;;;;;;;;;;5084602;28;20791;-72
2022/04/23 00:41:46;;;;;;;6.57;2.90;;;;;;;;;;5084638;28;20048;-72
2022/04/23 00:44:16;;;;;;;7.10;2.80;;;;;;;;;;5084799;28;20615;-73
2022/04/23 00:46:43;;;;;;;5.68;2.90;;;;;;;;;;5084770;28;20035;-73
2022/04/23 00:49:09;;;;;;;6.68;2.80;;;;;;;;;;5084325;28;20036;-72
2022/04/23 00:51:35;;;;;;;6.65;2.90;;;;;;;;;;5083959;28;20065;-73
2022/04/23 00:54:07;;;;;;;5.75;2.97;;;;;;;;;;5083567;28;20210;-73
2022/04/23 00:56:33;;;;;;;6.43;3.10;;;;;;;;;;5084321;28;20043;-73
2022/04/23 00:58:59;;;;;;;6.07;3.17;;;;;;;;;;5090805;28;20031;-73
2022/04/23 01:01:26;;;;;;;7.60;3.17;;;;;;;;;;5104651;28;20043;-73
2022/04/23 01:03:57;;;;;;;7.07;2.90;;;;;;;;;;5104215;28;20043;-73
2022/04/23 01:06:24;;;;;;;6.57;3.10;;;;;;;;;;5120085;28;20045;-73
2022/04/23 01:08:51;;;;;;;7.82;2.95;;;;;;;;;;5083666;28;20047;-73
2022/04/23 01:11:17;;;;;;;5.75;2.55;;;;;;;;;;5067376;28;20036;-73
2022/04/23 01:13:44;;;;;;;8.35;3.03;;;;;;;;;;5083798;28;20055;-72
2022/04/23 01:16:10;;;;;;;6.43;2.85;;;;;;;;;;5083962;28;20051;-72
2022/04/23 01:18:40;;;;;;;5.75;2.70;;;;;;;;;;5084059;28;20078;-72
2022/04/23 01:21:08;;;;;;;9.25;3.17;;;;;;;;;;5102254;28;20038;-72
2022/04/23 01:23:35;;;;;;;6.85;3.28;;;;;;;;;;5083483;28;20047;-72
2022/04/23 01:26:03;;;;;;;8.27;3.13;;;;;;;;;;5066923;28;20039;-72
2022/04/23 01:28:29;;;;;;;8.35;3.42;;;;;;;;;;5083984;28;20165;-73
2022/04/23 01:30:59;;;;;;;7.53;3.35;;;;;;;;;;5066700;28;20133;-73
2022/04/23 01:33:25;;;;;;;7.25;3.65;;;;;;;;;;5083618;28;20048;-72
2022/04/23 01:35:51;;;;;;;7.60;3.65;;;;;;;;;;5083827;28;20054;-73
2022/04/23 01:38:17;;;;;;;7.15;3.90;;;;;;;;;;5083710;28;20100;-73
2022/04/23 01:40:43;;;;;;;7.80;3.83;;;;;;;;;;5084081;28;20051;-73
2022/04/23 01:43:09;;;;;;;8.48;3.53;;;;;;;;;;5101723;28;20042;-72
2022/04/23 01:45:36;;;;;;;6.40;3.63;;;;;;;;;;5083994;28;20047;-73
2022/04/23 01:48:02;;;;;;;7.32;4.22;;;;;;;;;;5101777;28;20480;-72
2022/04/23 01:50:28;;;;;;;7.47;3.72;;;;;;;;;;5101731;28;20582;-73
2022/04/23 01:52:54;;;;;;;7.60;4.00;;;;;;;;;;5083519;28;20043;-72
2022/04/23 01:55:20;;;;;;;8.40;4.63;;;;;;;;;;5101807;28;20069;-73
2022/04/23 01:57:46;;;;;;;8.98;4.45;;;;;;;;;;5113282;28;20041;-73
2022/04/23 02:00:14;;;;;;;6.95;4.35;;;;;;;;;;5103673;28;20126;-73
2022/04/23 02:02:40;;;;;;;8.38;3.78;;;;;;;;;;5103565;28;20047;-73
2022/04/23 02:05:06;;;;;;;7.57;3.88;;;;;;;;;;5122403;27;20046;-72
2022/04/23 02:07:43;;;;;;;7.90;4.18;;;;;;;;;;5107702;27;20055;-72
2022/04/23 02:10:10;;;;;;;7.85;3.70;;;;;;;;;;5107240;27;20411;-72
2022/04/23 02:12:38;;;;;;;7.32;3.63;;;;;;;;;;5107384;27;20063;-72
2022/04/23 02:15:07;;;;;;;7.28;3.83;;;;;;;;;;5107232;27;20043;-72
2022/04/23 02:17:37;;;;;;;6.70;3.55;;;;;;;;;;5106822;27;20054;-73
2022/04/23 02:20:04;;;;;;;7.05;3.75;;;;;;;;;;5090676;27;20476;-73
2022/04/23 02:22:30;;;;;;;8.02;3.92;;;;;;;;;;5090095;27;20031;-73
2022/04/23 02:24:56;;;;;;;6.88;3.83;;;;;;;;;;5107182;27;20388;-73
2022/04/23 02:27:23;;;;;;;7.03;3.60;;;;;;;;;;5090103;27;20039;-73
2022/04/23 02:29:49;;;;;;;9.25;3.70;;;;;;;;;;5093911;28;20127;-74
2022/04/23 02:32:15;;;;;;;7.32;3.33;;;;;;;;;;5086583;28;20055;-74
2022/04/23 02:34:41;;;;;;;8.18;3.70;;;;;;;;;;5086704;28;20047;-74
2022/04/23 02:37:07;;;;;;;6.78;3.50;;;;;;;;;;5086619;28;20180;-74
2022/04/23 02:39:33;;;;;;;6.57;3.53;;;;;;;;;;5069345;28;20036;-74
2022/04/23 02:41:59;;;;;;;7.30;3.92;;;;;;;;;;5076631;27;20047;-74
2022/04/23 02:44:25;;;;;;;7.05;3.30;;;;;;;;;;5106883;27;20050;-72
2022/04/23 02:46:52;;;;;;;6.70;3.90;;;;;;;;;;5106651;27;20384;-73
2022/04/23 02:49:18;;;;;;;8.57;3.80;;;;;;;;;;5089951;27;20171;-73
2022/04/23 02:51:44;;;;;;;7.72;3.83;;;;;;;;;;5106939;27;20031;-72
2022/04/23 02:54:12;;;;;;;8.77;3.80;;;;;;;;;;5089560;27;20051;-73
2022/04/23 02:56:38;;;;;;;6.88;3.60;;;;;;;;;;5124994;27;20045;-74
2022/04/23 02:59:06;;;;;;;8.75;3.28;;;;;;;;;;5106821;27;20047;-73
2022/04/23 03:01:34;;;;;;;7.63;3.97;;;;;;;;;;5089384;27;20031;-73
2022/04/23 03:04:00;;;;;;;6.07;3.33;;;;;;;;;;5106579;27;20683;-73
2022/04/23 03:06:30;;;;;;;6.55;3.45;;;;;;;;;;5106109;27;20147;-73
2022/04/23 03:08:56;;;;;;;6.45;3.40;;;;;;;;;;5106343;27;20049;-73
2022/04/23 03:11:23;;;;;;;6.43;3.40;;;;;;;;;;5106565;27;20473;-73
2022/04/23 03:13:50;;;;;;;6.45;3.38;;;;;;;;;;5124302;27;20511;-72
2022/04/23 03:16:16;;;;;;;7.15;3.70;;;;;;;;;;5106183;27;20050;-73
2022/04/23 03:18:43;;;;;;;7.18;3.58;;;;;;;;;;5104616;27;20469;-73
2022/04/23 03:21:09;;;;;;;6.93;3.72;;;;;;;;;;5089467;27;20039;-73
2022/04/23 03:23:37;;;;;;;6.13;3.35;;;;;;;;;;5105780;27;20047;-73
2022/04/23 03:26:03;;;;;;;6.88;3.47;;;;;;;;;;5124363;27;20046;-72
2022/04/23 03:28:29;;;;;;;6.15;3.20;;;;;;;;;;5124276;27;20043;-73
2022/04/23 03:30:55;;;;;;;7.07;3.67;;;;;;;;;;5124134;27;20047;-73
2022/04/23 03:33:22;;;;;;;7.22;3.60;;;;;;;;;;5124021;27;20085;-73
2022/04/23 03:35:48;;;;;;;6.70;3.45;;;;;;;;;;5105398;27;20057;-73
2022/04/23 03:38:16;;;;;;;7.68;3.90;;;;;;;;;;5105578;27;20184;-73
2022/04/23 03:40:43;;;;;;;6.47;3.60;;;;;;;;;;5088737;27;20043;-73
2022/04/23 03:43:08;;;;;;;7.47;3.60;;;;;;;;;;5088504;27;20043;-73
2022/04/23 03:45:37;;;;;;;6.43;3.42;;;;;;;;;;5105624;27;20046;-73
2022/04/23 03:48:04;;;;;;;8.18;3.35;;;;;;;;;;5105614;27;20389;-73
2022/04/23 03:50:30;;;;;;;6.93;3.83;;;;;;;;;;5105329;27;20039;-73
2022/04/23 03:52:56;;;;;;;6.38;3.30;;;;;;;;;;5105438;27;20049;-72
2022/04/23 03:55:22;;;;;;;8.65;3.40;;;;;;;;;;5105704;27;20035;-73
2022/04/23 03:57:49;;;;;;;7.85;3.65;;;;;;;;;;5105352;27;20106;-73
2022/04/23 04:00:16;;;;;;;6.60;3.63;;;;;;;;;;5088110;27;20046;-72
2022/04/23 04:02:43;;;;;;;6.15;3.28;;;;;;;;;;5104946;27;20134;-73
2022/04/23 04:05:10;;;;;;;7.57;3.88;;;;;;;;;;5105356;27;20042;-73
2022/04/23 04:07:36;;;;;;;7.45;3.20;;;;;;;;;;5104401;27;20518;-73
2022/04/23 04:10:03;;;;;;;6.93;3.53;;;;;;;;;;5105130;27;20061;-73
2022/04/23 04:12:29;;;;;;;7.05;3.63;;;;;;;;;;5087527;27;20139;-73
2022/04/23 04:14:56;;;;;;;6.30;3.47;;;;;;;;;;5115781;27;20116;-73
2022/04/23 04:17:22;;;;;;;7.15;3.60;;;;;;;;;;5075561;27;20075;-73
2022/04/23 04:19:48;;;;;;;8.30;3.78;;;;;;;;;;5084918;28;20188;-73
2022/04/23 04:22:14;;;;;;;6.93;3.78;;;;;;;;;;5084042;28;20107;-73
2022/04/23 04:24:40;;;;;;;6.82;3.70;;;;;;;;;;5067482;28;20035;-73
2022/04/23 04:27:07;;;;;;;6.97;3.78;;;;;;;;;;5084609;28;20080;-73
2022/04/23 04:29:33;;;;;;;7.05;3.70;;;;;;;;;;5091400;27;20492;-73
2022/04/23 04:31:59;;;;;;;6.50;3.65;;;;;;;;;;5104744;27;20053;-73
2022/04/23 04:34:30;;;;;;;6.32;3.53;;;;;;;;;;5104266;27;20055;-73
2022/04/23 04:37:02;;;;;;;6.65;3.67;;;;;;;;;;5104583;27;20079;-73
2022/04/23 04:39:28;;;;;;;7.95;4.05;;;;;;;;;;5104770;27;20134;-73
2022/04/23 04:41:54;;;;;;;6.40;3.70;;;;;;;;;;5104214;27;20917;-73
2022/04/23 04:44:20;;;;;;;6.65;3.70;;;;;;;;;;5104456;27;20035;-73
2022/04/23 04:46:46;;;;;;;6.18;3.70;;;;;;;;;;5104263;27;20179;-73
2022/04/23 04:49:12;;;;;;;7.25;3.83;;;;;;;;;;5122922;27;20027;-73
2022/04/23 04:51:38;;;;;;;6.53;3.72;;;;;;;;;;5104327;28;20112;-73
2022/04/23 04:54:04;;;;;;;6.90;4.00;;;;;;;;;;5122489;27;20120;-72
2022/04/23 04:56:30;;;;;;;6.82;3.85;;;;;;;;;;5109030;27;20366;-73
2022/04/23 04:58:56;;;;;;;6.35;3.75;;;;;;;;;;5083388;28;20144;-72
2022/04/23 05:01:22;;;;;;;6.32;3.65;;;;;;;;;;5084127;28;20522;-73
2022/04/23 05:03:48;;;;;;;6.30;3.42;;;;;;;;;;5083737;28;20041;-73
2022/04/23 05:06:14;;;;;;;6.60;3.63;;;;;;;;;;5083850;28;20047;-72
2022/04/23 05:08:41;;;;;;;6.50;3.70;;;;;;;;;;5083592;28;20047;-73
2022/04/23 05:11:07;;;;;;;7.03;4.03;;;;;;;;;;5098606;28;20043;-73
2022/04/23 05:13:33;;;;;;;8.00;3.88;;;;;;;;;;5103881;28;20043;-73
2022/04/23 05:16:00;;;;;;;6.45;3.60;;;;;;;;;;5087242;28;20050;-73
2022/04/23 05:18:26;;;;;;;7.10;3.95;;;;;;;;;;5104049;28;20547;-73
2022/04/23 05:20:53;;;;;;;6.63;3.75;;;;;;;;;;5103677;28;20046;-73
2022/04/23 05:23:19;;;;;;;6.38;3.97;;;;;;;;;;5103200;28;20724;-74
2022/04/23 05:25:45;;;;;;;6.93;3.90;;;;;;;;;;5086535;28;20039;-72
2022/04/23 05:28:11;;;;;;;7.03;3.90;;;;;;;;;;5103792;28;20043;-72
2022/04/23 05:30:38;;;;;;;7.55;4.05;;;;;;;;;;5086469;28;20527;-73
2022/04/23 05:33:05;;;;;;;6.85;3.88;;;;;;;;;;5103179;28;20058;-72
2022/04/23 05:35:31;;;;;;;7.10;4.30;;;;;;;;;;5089869;28;20044;-73
2022/04/23 05:37:57;;;;;;;7.80;4.03;;;;;;;;;;5106051;28;20095;-72
2022/04/23 05:40:23;;;;;;;6.82;3.83;;;;;;;;;;5104055;27;20601;-73
2022/04/23 05:42:49;;;;;;;6.40;3.90;;;;;;;;;;5091281;27;20047;-73
2022/04/23 05:45:15;;;;;;;5.95;3.53;;;;;;;;;;5108022;27;20051;-72
2022/04/23 05:47:41;;;;;;;8.50;4.55;;;;;;;;;;5090591;27;20091;-72
2022/04/23 05:50:08;;;;;;;7.35;4.57;;;;;;;;;;5090762;27;20183;-73
2022/04/23 05:52:35;;;;;;;6.80;4.28;;;;;;;;;;5107518;27;20043;-72
2022/04/23 05:55:01;;;;;;;6.82;3.85;;;;;;;;;;5107345;27;20039;-72
2022/04/23 05:57:27;;;;;;;6.78;3.70;;;;;;;;;;5090674;27;20373;-73
2022/04/23 05:59:53;;;;;;;6.45;3.53;;;;;;;;;;5104810;27;20039;-72
2022/04/23 06:02:19;;;;;;;6.45;3.78;;;;;;;;;;5060908;27;20905;-72
2022/04/23 06:04:48;;;;;;;5.97;3.38;;;;;;;;;;5096379;27;20219;-73
2022/04/23 06:07:14;;;;;;;8.48;3.92;;;;;;;;;;5126984;27;20465;-73
2022/04/23 06:09:40;;;;;;;6.72;3.70;;;;;;;;;;5096899;27;20075;-72
2022/04/23 06:12:06;;;;;;;7.38;3.63;;;;;;;;;;5126964;27;20055;-73
2022/04/23 06:14:32;;;;;;;6.18;3.60;;;;;;;;;;5126424;27;20070;-72
2022/04/23 06:16:58;;;;;;;7.53;3.70;;;;;;;;;;5108253;27;20492;-73
2022/04/23 06:19:24;;;;;;;7.53;3.97;;;;;;;;;;5106259;27;20088;-72
2022/04/23 06:21:51;;;;;;;6.72;4.00;;;;;;;;;;5089208;27;20066;-73
2022/04/23 06:24:17;;;;;;;6.32;3.63;;;;;;;;;;5120113;27;20100;-72
2022/04/23 06:26:43;;;;;;;6.13;3.75;;;;;;;;;;5106181;27;20541;-72
2022/04/23 06:29:09;;;;;;;8.15;3.90;;;;;;;;;;5105836;27;20076;-72
2022/04/23 06:31:35;;;;;;;6.70;3.63;;;;;;;;;;5088816;27;20047;-72
2022/04/23 06:34:01;;;;;;;7.45;4.00;;;;;;;;;;5106118;27;20599;-73
2022/04/23 06:36:27;;;;;;;6.57;3.83;;;;;;;;;;5105987;27;20070;-73
2022/04/23 06:38:53;;;;;;;6.75;3.53;;;;;;;;;;5105931;27;20070;-73
2022/04/23 06:41:19;;;;;;;8.45;4.20;;;;;;;;;;5089079;27;20081;-72
2022/04/23 06:43:45;;;;;;;8.10;3.90;;;;;;;;;;5088659;27;20492;-73
2022/04/23 06:49:34;;;;;;;8.27;3.80;;;;;;;;;;5124203;27;20054;-73
2022/04/23 06:52:00;;;;;;;7.47;3.65;;;;;;;;;;5088807;28;20142;-73
2022/04/23 06:54:26;;;;;;;7.38;4.25;;;;;;;;;;5085655;28;20122;-72
2022/04/23 06:56:52;;;;;;;7.10;4.00;;;;;;;;;;5092488;27;20107;-73
2022/04/23 06:59:18;;;;;;;7.65;4.28;;;;;;;;;;5076218;27;21332;-73
2022/04/23 07:01:44;;;;;;;8.43;3.90;;;;;;;;;;5079493;27;20141;-73
2022/04/23 07:04:10;;;;;;;7.43;3.92;;;;;;;;;;5058396;27;20039;-73
2022/04/23 07:06:36;;;;;;;7.30;4.00;;;;;;;;;;5103658;27;20047;-73
2022/04/23 07:09:03;;;;;;;7.65;3.95;;;;;;;;;;5103693;27;20088;-73
2022/04/23 07:11:29;;;;;;;8.23;3.95;;;;;;;;;;5096912;28;20036;-73
2022/04/23 07:13:55;;;;;;;8.05;3.70;;;;;;;;;;5066527;28;20067;-73
2022/04/23 07:16:21;;;;;;;6.72;3.60;;;;;;;;;;5058755;27;20153;-73
2022/04/23 07:18:47;;;;;;;9.57;4.40;;;;;;;;;;5074025;27;20054;-73
2022/04/23 07:21:13;;;;;;;7.30;3.72;;;;;;;;;;5082663;27;20042;-73
2022/04/23 07:26:24;;;;;;;7.70;3.92;;;;;;;;;;5093941;27;20071;-73
2022/04/23 07:28:50;;;;;;;9.48;4.03;;;;;;;;;;5102739;27;20038;-73
2022/04/23 07:31:16;;;;;;;9.05;4.03;;;;;;;;;;5100081;27;20451;-73
2022/04/23 07:39:11;;;;;;;;;;;;;;;;;;5118437;27;20326;-73
2022/04/23 07:41:37;;;;;;;7.35;3.97;;;;;;;;;;5101785;27;19976;-73
2022/04/23 07:44:03;;;;;;;6.07;3.50;;;;;;;;;;5103026;27;20046;-73
2022/04/23 07:46:30;;;;;;;8.10;3.90;;;;;;;;;;5103240;27;20046;-73
2022/04/23 07:48:58;;;;;;;7.78;3.67;;;;;;;;;;5089259;27;20047;-73
2022/04/23 07:51:27;;;;;;;7.45;4.05;;;;;;;;;;5106365;27;20594;-71
2022/04/23 07:53:53;;;;;;;9.80;3.90;;;;;;;;;;5112679;27;20074;-70
2022/04/23 07:56:19;;;;;;;12.35;4.28;;;;;;;;;;5054406;27;20081;-72
2022/04/23 07:58:45;;;;;;;15.40;4.20;;;;;;;;;;5069964;27;20735;-72
2022/04/23 08:01:11;;;;;;;15.27;4.10;;;;;;;;;;5074267;27;20137;-71
2022/04/23 08:03:37;;;;;;;10.93;3.97;;;;;;;;;;5086427;27;20050;-70
2022/04/23 08:06:03;;;;;;;14.25;4.82;;;;;;;;;;5070807;27;20186;-75
2022/04/23 08:08:29;;;;;;;11.52;6.13;;;;;;;;;;5070356;27;20069;-74
2022/04/23 08:10:55;;;;;;;12.90;6.38;;;;;;;;;;5088314;27;20150;-75
2022/04/23 08:13:24;;;;;;;16.73;6.30;;;;;;;;;;5070998;27;20042;-75
2022/04/23 08:15:50;;;;;;;12.68;6.85;;;;;;;;;;5088480;27;20135;-75
2022/04/23 08:18:16;;;;;;;15.38;7.40;;;;;;;;;;5089224;27;20054;-75
2022/04/23 08:20:43;;;;;;;15.35;7.47;;;;;;;;;;5085834;27;20051;-73
2022/04/23 08:23:09;;;;;;;14.23;7.70;;;;;;;;;;5107287;27;20130;-71
2022/04/23 08:25:36;;;;;;;12.25;7.65;;;;;;;;;;5086434;27;20047;-71
2022/04/23 08:30:47;;;;;;;10.18;6.65;;;;;;;;;;5084467;27;20059;-70
2022/04/23 08:33:13;;;;;;;14.48;6.97;;;;;;;;;;5087429;27;20469;-71
2022/04/23 08:35:39;;;;;;;11.32;6.82;;;;;;;;;;5107541;27;20133;-71
2022/04/23 08:38:06;;;;;;;10.00;6.20;;;;;;;;;;5087636;27;20263;-70
2022/04/23 08:40:35;;;;;;;9.32;6.07;;;;;;;;;;5104507;27;20512;-71
2022/04/23 08:43:01;;;;;;;9.65;5.32;;;;;;;;;;5076477;27;20497;-72
2022/04/23 08:45:27;;;;;;;9.77;5.80;;;;;;;;;;5101160;27;20086;-70
2022/04/23 08:47:56;;;;;;;10.98;6.22;;;;;;;;;;5100978;27;20455;-70
2022/04/23 08:50:22;;;;;;;9.40;5.85;;;;;;;;;;5100086;27;20039;-72
2022/04/23 08:52:50;;;;;;;11.80;5.40;;;;;;;;;;5102166;27;20035;-70
2022/04/23 08:55:18;;;;;;;10.93;5.40;;;;;;;;;;5119676;27;20334;-70
2022/04/23 08:57:44;;;;;;;10.18;5.13;;;;;;;;;;5083858;27;20126;-70
2022/04/23 09:00:12;;;;;;;10.30;5.07;;;;;;;;;;5100965;27;20235;-71
2022/04/23 09:02:38;;;;;;;10.00;4.75;;;;;;;;;;5080318;27;20165;-70
2022/04/23 09:05:05;;;;;;;7.85;4.97;;;;;;;;;;5055453;27;20074;-70
2022/04/23 09:07:31;;;;;;;9.38;4.45;;;;;;;;;;5068417;27;20066;-70
2022/04/23 09:09:58;;;;;;;7.93;4.90;;;;;;;;;;5071651;27;20070;-70
2022/04/23 09:12:26;;;;;;;9.00;4.80;;;;;;;;;;5085999;28;20043;-70
2022/04/23 09:14:52;;;;;;;8.18;4.32;;;;;;;;;;5084037;28;20047;-70
2022/04/23 09:25:44;;;;;;;9.32;4.35;;;;;;;;;;5096283;27;20047;-71
2022/04/23 09:28:16;;;;;;;9.43;4.85;;;;;;;;;;5095262;27;20560;-71
2022/04/23 09:30:42;;;;;;;9.93;4.85;;;;;;;;;;5090658;28;20051;-71
2022/04/23 09:33:09;;;;;;;10.57;3.95;;;;;;;;;;5087006;28;20067;-71
2022/04/23 09:35:35;;;;;;;7.10;4.60;;;;;;;;;;5088851;28;20047;-71
2022/04/23 09:38:18;;;;;;;8.63;4.63;;;;;;;;;;5087964;28;20825;-71
2022/04/23 09:40:49;;;;;;;8.25;4.40;;;;;;;;;;5088859;28;20142;-71
2022/04/23 09:43:15;;;;;;;8.63;4.75;;;;;;;;;;5086102;28;20047;-71
2022/04/23 09:45:42;;;;;;;7.93;4.18;;;;;;;;;;5090340;28;20112;-71
2022/04/23 09:48:17;;;;;;;7.60;4.43;;;;;;;;;;5088668;28;20511;-71
2022/04/23 09:50:44;;;;;;;8.98;4.60;;;;;;;;;;5089073;28;20070;-70
2022/04/23 09:53:14;;;;;;;7.03;4.47;;;;;;;;;;5085793;28;20203;-71
2022/04/23 09:55:40;;;;;;;8.55;4.47;;;;;;;;;;5090257;28;20040;-71
2022/04/23 09:58:07;;;;;;;8.45;4.55;;;;;;;;;;5088837;28;20552;-71
2022/04/23 10:00:37;;;;;;;10.40;4.15;;;;;;;;;;5088899;28;20172;-71
2022/04/23 10:03:07;;;;;;;7.82;4.10;;;;;;;;;;5068151;28;20157;-71
2022/04/23 10:05:37;;;;;;;8.32;4.28;;;;;;;;;;5087975;28;20058;-71
2022/04/23 10:08:04;;;;;;;9.82;4.30;;;;;;;;;;5070838;28;20047;-71
2022/04/23 10:10:33;;;;;;;8.95;4.60;;;;;;;;;;5087405;28;20390;-71
2022/04/23 10:13:00;;;;;;;9.65;4.15;;;;;;;;;;5069090;28;20173;-70
2022/04/23 10:15:27;;;;;;;9.32;4.55;;;;;;;;;;5087876;28;20059;-71
2022/04/23 10:17:54;;;;;;;7.25;4.72;;;;;;;;;;5087868;28;20475;-71
2022/04/23 10:20:22;;;;;;;10.10;4.78;;;;;;;;;;5090305;28;20188;-72
2022/04/23 10:22:53;;;;;;;9.60;4.25;;;;;;;;;;5099435;28;20046;-71
2022/04/23 10:25:22;;;;;;;7.80;4.15;;;;;;;;;;5100535;28;20035;-71
2022/04/23 10:27:49;;;;;;;9.32;4.70;;;;;;;;;;5100094;28;20078;-72
2022/04/23 10:30:16;;;;;;;8.52;4.70;;;;;;;;;;5083584;28;20075;-71
2022/04/23 10:32:43;;;;;;;7.65;4.10;;;;;;;;;;5100157;28;20120;-71
2022/04/23 10:35:18;;;;;;;9.70;4.05;;;;;;;;;;5101522;28;20383;-71
2022/04/23 10:37:45;;;;;;;9.82;4.63;;;;;;;;;;5099881;28;20031;-72
2022/04/23 10:40:11;;;;;;;7.32;4.00;;;;;;;;;;5100215;28;20036;-72
2022/04/23 10:42:38;;;;;;;10.45;4.70;;;;;;;;;;5101302;28;20047;-70
2022/04/23 10:45:06;;;;;;;9.65;4.22;;;;;;;;;;5100700;28;20075;-71
2022/04/23 10:47:35;;;;;;;8.52;4.18;;;;;;;;;;5099902;28;20043;-70
2022/04/23 10:50:15;;;;;;;11.05;4.03;;;;;;;;;;5100041;28;20039;-70
2022/04/23 10:52:42;;;;;;;8.82;4.35;;;;;;;;;;5100183;28;20172;-70
2022/04/23 10:55:08;;;;;;;7.45;4.05;;;;;;;;;;5099802;28;20561;-71
2022/04/23 10:57:34;;;;;;;11.60;4.05;;;;;;;;;;5100759;28;20199;-71
2022/04/23 11:00:16;;;;;;;10.55;4.70;;;;;;;;;;5101439;27;20459;-70
2022/04/23 11:02:42;;;;;;;12.50;4.50;;;;;;;;;;5099934;28;20132;-70
2022/04/23 11:13:42;;;;;;;10.85;4.35;;;;;;;;;;5099627;28;20047;-71
2022/04/23 11:16:09;;;;;;;9.57;4.20;;;;;;;;;;5100093;28;20050;-70
2022/04/23 11:18:36;;;;;;;9.65;4.70;;;;;;;;;;5099967;28;20508;-70
2022/04/23 11:21:06;;;;;;;12.32;5.05;;;;;;;;;;5101499;28;20263;-71
2022/04/23 11:23:35;;;;;;;8.68;4.57;;;;;;;;;;5099238;28;20075;-70
2022/04/23 11:26:01;;;;;;;8.38;4.25;;;;;;;;;;5099719;28;20051;-71
2022/04/23 11:28:26;;;;;;;9.88;4.25;;;;;;;;;;5099422;28;20377;-70
2022/04/23 11:30:54;;;;;;;8.65;4.43;;;;;;;;;;5099552;28;20051;-70
2022/04/23 11:33:20;;;;;;;7.88;4.30;;;;;;;;;;5092445;28;20723;-70
2022/04/23 11:35:46;;;;;;;7.35;4.40;;;;;;;;;;5074532;28;20040;-71
2022/04/23 11:38:26;;;;;;;10.02;4.28;;;;;;;;;;5075367;28;20048;-70
2022/04/23 11:40:52;;;;;;;6.45;3.92;;;;;;;;;;5087760;27;20046;-74
2022/04/23 11:43:40;;;;;;;6.07;3.55;;;;;;;;;;5083588;28;20039;-70
2022/04/23 11:46:07;;;;;;;7.05;3.90;;;;;;;;;;5095304;28;20408;-71
2022/04/23 11:48:43;;;;;;;7.72;4.00;;;;;;;;;;5070743;28;20335;-71
2022/04/23 11:51:12;;;;;;;11.32;4.30;;;;;;;;;;5071252;28;20237;-71
2022/04/23 11:53:49;;;;;;;8.65;4.07;;;;;;;;;;5086210;27;21476;-72
2022/04/23 11:56:22;;;;;;;8.52;4.45;;;;;;;;;;5099276;27;20591;-71
2022/04/23 11:58:48;;;;;;;8.47;3.93;;;;;;;;;;5099579;28;20081;-71
2022/04/23 12:01:15;;;;;;;8.15;3.55;;;;;;;;;;5099167;28;20283;-71
2022/04/23 12:03:49;;;;;;;6.70;3.88;;;;;;;;;;5099315;28;20185;-70
2022/04/23 12:06:15;;;;;;;8.40;3.40;;;;;;;;;;5098722;28;20066;-71
2022/04/23 12:08:41;;;;;;;9.07;3.88;;;;;;;;;;5100321;28;20173;-70
2022/04/23 12:11:23;;;;;;;7.55;3.80;;;;;;;;;;5094992;28;20608;-71
2022/04/23 12:13:49;;;;;;;6.07;3.40;;;;;;;;;;5094943;28;20348;-70
2022/04/23 12:16:35;;;;;;;8.23;3.90;;;;;;;;;;5077076;28;20236;-70
2022/04/23 12:19:02;;;;;;;7.63;3.22;;;;;;;;;;5077202;28;20058;-70
2022/04/23 12:21:29;;;;;;;8.40;3.70;;;;;;;;;;5080927;28;20458;-70
2022/04/23 12:23:55;;;;;;;7.32;3.80;;;;;;;;;;5097727;27;20129;-71
2022/04/23 12:26:22;;;;;;;9.38;4.07;;;;;;;;;;5079905;27;21876;-71
2022/04/23 12:42:28;;;;;;;6.88;3.38;;;;;;;;;;5097297;28;20047;-71
2022/04/23 12:44:54;;;;;;;7.50;3.33;;;;;;;;;;5098119;28;20032;-71
2022/04/23 12:47:34;;;;;;;7.68;3.50;;;;;;;;;;5097703;28;20039;-71
2022/04/23 12:50:06;;;;;;;6.85;3.30;;;;;;;;;;5097871;28;20047;-71
2022/04/23 12:52:44;;;;;;;8.10;3.40;;;;;;;;;;5075818;28;20570;-71
2022/04/23 12:55:28;;;;;;;7.18;3.13;;;;;;;;;;5076815;28;20106;-70
2022/04/23 12:57:55;;;;;;;5.97;3.40;;;;;;;;;;5077783;28;20670;-72
2022/04/23 13:00:22;;;;;;;7.78;3.22;;;;;;;;;;5096126;28;20165;-70
2022/04/23 13:02:53;;;;;;;9.77;3.78;;;;;;;;;;5096883;28;20126;-71
2022/04/23 13:05:19;;;;;;;7.00;3.40;;;;;;;;;;5098484;28;20070;-70
2022/04/23 13:10:30;;;;;;;;;;;;;;;;;;5097991;28;20040;-71
2022/04/23 13:12:56;;;;;;;6.32;3.40;;;;;;;;;;5098156;28;20470;-71
2022/04/23 13:15:22;;;;;;;7.15;3.30;;;;;;;;;;5098237;28;20180;-71
2022/04/23 13:17:48;;;;;;;7.00;3.45;;;;;;;;;;5097676;28;20264;-71
2022/04/23 13:20:15;;;;;;;6.53;3.53;;;;;;;;;;5098136;28;20050;-71
2022/04/23 13:22:43;;;;;;;7.55;3.15;;;;;;;;;;5082291;28;20052;-70
2022/04/23 13:25:09;;;;;;;5.88;3.08;;;;;;;;;;5069991;28;20540;-70
2022/04/23 13:27:36;;;;;;;7.22;3.20;;;;;;;;;;5095969;28;20072;-70
2022/04/23 13:30:04;;;;;;;9.63;3.03;;;;;;;;;;5105439;28;20085;-70
2022/04/23 13:32:32;;;;;;;7.53;3.28;;;;;;;;;;5082697;28;20104;-70
2022/04/23 13:34:58;;;;;;;7.05;3.08;;;;;;;;;;5097100;28;20131;-70
2022/04/23 13:37:24;;;;;;;9.00;3.20;;;;;;;;;;5104525;28;20239;-69
2022/04/23 13:39:50;;;;;;;5.60;2.88;;;;;;;;;;5117829;28;20244;-70
2022/04/23 13:42:17;;;;;;;7.30;2.92;;;;;;;;;;5117342;28;20437;-70
2022/04/23 13:44:43;;;;;;;7.10;3.10;;;;;;;;;;5116930;27;20043;-69
2022/04/23 13:47:10;;;;;;;6.63;2.80;;;;;;;;;;5117696;28;20476;-69
2022/04/23 13:49:36;;;;;;;7.63;2.83;;;;;;;;;;5117665;27;20421;-69
2022/04/23 13:52:04;;;;;;;6.88;2.70;;;;;;;;;;5117515;28;20278;-70
2022/04/23 13:54:30;;;;;;;5.43;2.92;;;;;;;;;;5100473;28;20398;-70
2022/04/23 13:57:00;;;;;;;5.43;2.70;;;;;;;;;;5117335;28;20043;-71
2022/04/23 13:59:26;;;;;;;5.15;2.58;;;;;;;;;;5114380;28;20091;-71
2022/04/23 14:10:06;;;;;;;;;;;;;;;;;;5121384;27;20047;-72
2022/04/23 14:12:32;;;;;;;5.13;2.60;;;;;;;;;;5120403;27;19926;-70
2022/04/23 14:14:58;;;;;;;5.05;2.60;;;;;;;;;;5120478;27;20124;-68
2022/04/23 14:17:24;;;;;;;4.95;2.60;;;;;;;;;;5084945;28;20039;-69
2022/04/23 14:19:50;;;;;;;6.47;2.50;;;;;;;;;;5100308;28;20058;-70
2022/04/23 14:22:16;;;;;;;5.50;2.70;;;;;;;;;;5084285;28;20035;-70
2022/04/23 14:24:42;;;;;;;6.97;2.92;;;;;;;;;;5101647;27;20051;-69
2022/04/23 14:27:08;;;;;;;5.97;2.60;;;;;;;;;;5110408;27;20048;-71
2022/04/23 14:29:34;;;;;;;7.15;2.38;;;;;;;;;;5114479;27;20040;-69
2022/04/23 14:32:02;;;;;;;7.30;2.90;;;;;;;;;;5098768;27;20181;-69
2022/04/23 14:34:28;;;;;;;6.18;2.40;;;;;;;;;;5098546;27;20046;-70
2022/04/23 14:36:54;;;;;;;5.40;2.33;;;;;;;;;;5107587;27;20046;-70
2022/04/23 14:39:20;;;;;;;6.70;2.50;;;;;;;;;;5121465;27;20377;-69
2022/04/23 14:41:46;;;;;;;7.20;2.70;;;;;;;;;;5102813;27;20581;-69
2022/04/23 14:44:12;;;;;;;5.07;2.70;;;;;;;;;;5082923;27;20055;-70
2022/04/23 14:46:38;;;;;;;5.35;2.45;;;;;;;;;;5074030;27;20420;-69
2022/04/23 14:49:04;;;;;;;5.90;2.10;;;;;;;;;;5083957;27;20041;-70
2022/04/23 14:54:15;;;;;;;7.85;3.30;;;;;;;;;;5096745;27;20046;-73
2022/04/23 14:56:41;;;;;;;12.85;4.03;;;;;;;;;;5106562;27;20134;-70
2022/04/23 14:59:08;;;;;;;8.52;3.42;;;;;;;;;;5089235;27;20050;-70
2022/04/23 15:01:35;;;;;;;8.48;3.97;;;;;;;;;;5106325;27;20508;-69
2022/04/23 15:04:07;;;;;;;9.90;3.13;;;;;;;;;;5104698;27;20111;-70
2022/04/23 15:06:33;;;;;;;9.32;3.17;;;;;;;;;;5104176;27;20088;-71
2022/04/23 15:08:59;;;;;;;7.88;3.20;;;;;;;;;;5103509;27;20211;-71
2022/04/23 15:11:25;;;;;;;8.20;3.00;;;;;;;;;;5121884;27;20051;-71
2022/04/23 15:13:51;;;;;;;9.93;3.13;;;;;;;;;;5102280;27;20050;-71
2022/04/23 15:16:17;;;;;;;8.23;3.05;;;;;;;;;;5082697;28;20051;-69
2022/04/23 15:18:44;;;;;;;15.88;3.40;;;;;;;;;;5082508;28;20130;-69
2022/04/23 15:21:10;;;;;;;14.18;3.67;;;;;;;;;;5074673;27;20436;-69
2022/04/23 15:23:36;;;;;;;13.73;3.40;;;;;;;;;;5090058;27;20063;-69
2022/04/23 15:26:05;;;;;;;13.07;3.45;;;;;;;;;;5106558;27;20046;-72
2022/04/23 15:28:31;;;;;;;15.32;3.35;;;;;;;;;;5115569;27;20484;-73
2022/04/23 15:30:57;;;;;;;15.50;3.33;;;;;;;;;;5123380;27;20127;-73
2022/04/23 15:33:24;;;;;;;11.32;3.03;;;;;;;;;;5123405;27;20127;-74
2022/04/23 15:35:50;;;;;;;10.15;3.17;;;;;;;;;;5124924;27;20116;-75
2022/04/23 15:38:16;;;;;;;12.07;3.30;;;;;;;;;;5124941;27;20444;-73
2022/04/23 15:40:42;;;;;;;12.43;3.38;;;;;;;;;;5106521;27;20048;-74